Time;durP1;ratioP1;P1;durP2;ratioP2;P2;SDS_P1;SDS_P2;PMS_P1;PMS_P2;Temp;Humidity;BMP_temperature;BMP_pressure;BME280_temperature;BME280_humidity;BME280_pressure;Samples;Min_cycle;Max_cycle;Signal;HPM_P1;HPM_P2
2022/07/27 00:02:36;;;;;;;5.35;2.28;;;;;;;19.99;75.63;100329.72;20911003;28;20098;-82
2022/07/27 00:12:38;;;;;;;6.05;2.53;;;;;;;20.01;76.41;100337.59;20893260;28;20051;-82
2022/07/27 00:22:39;;;;;;;3.85;2.30;;;;;;;19.85;78.33;100332.28;20891591;28;20045;-82
2022/07/27 00:32:41;;;;;;;4.72;2.20;;;;;;;19.82;79.49;100335.09;20903220;28;20041;-81
2022/07/27 00:42:42;;;;;;;4.10;2.20;;;;;;;19.65;80.64;100342.22;20892408;28;20045;-82
2022/07/27 00:52:43;;;;;;;4.95;1.85;;;;;;;19.68;79.30;100347.31;20892101;28;20108;-85
2022/07/27 01:02:45;;;;;;;4.50;2.05;;;;;;;19.67;77.64;100340.31;20907922;28;20040;-83
2022/07/27 01:12:47;;;;;;;3.45;2.00;;;;;;;19.65;76.12;100339.53;20890431;28;20099;-84
2022/07/27 01:22:48;;;;;;;5.05;2.03;;;;;;;19.53;75.16;100337.50;20890186;28;20529;-82
2022/07/27 01:32:50;;;;;;;5.85;1.83;;;;;;;19.49;74.62;100328.84;20919852;28;20053;-83
2022/07/27 01:42:51;;;;;;;4.38;2.03;;;;;;;19.46;73.83;100344.09;20908735;28;20057;-83
2022/07/27 01:52:52;;;;;;;4.13;1.85;;;;;;;19.37;73.04;100331.31;20924006;28;20083;-83
2022/07/27 02:02:54;;;;;;;4.38;1.77;;;;;;;19.20;74.09;100316.25;20906342;28;20055;-83
2022/07/27 02:12:55;;;;;;;2.80;1.58;;;;;;;19.20;73.84;100310.94;20922389;28;20068;-82
2022/07/27 02:22:57;;;;;;;4.10;1.90;;;;;;;19.13;74.91;100302.47;20903235;28;20057;-82
2022/07/27 02:32:58;;;;;;;4.10;2.00;;;;;;;19.12;74.01;100299.91;20899135;28;20052;-82
2022/07/27 02:42:59;;;;;;;3.90;2.00;;;;;;;19.22;72.16;100294.03;20898432;28;20098;-82
2022/07/27 02:53:01;;;;;;;4.45;1.92;;;;;;;19.15;71.91;100303.22;20899338;28;20432;-82
2022/07/27 03:03:02;;;;;;;4.85;1.92;;;;;;;19.13;72.62;100309.56;20915845;28;20405;-83
2022/07/27 03:13:04;;;;;;;3.65;1.90;;;;;;;19.33;71.39;100313.81;20905292;28;20045;-82
2022/07/27 03:23:05;;;;;;;6.18;1.95;;;;;;;19.14;72.19;100316.59;20897660;28;20049;-82
2022/07/27 03:33:06;;;;;;;3.80;1.45;;;;;;;19.07;73.94;100323.16;20914936;28;20555;-83
2022/07/27 03:43:08;;;;;;;4.43;1.90;;;;;;;19.06;75.32;100314.31;20900273;28;20132;-83
2022/07/27 03:53:09;;;;;;;3.33;1.60;;;;;;;18.94;77.51;100325.59;20906347;28;20563;-84
2022/07/27 04:03:10;;;;;;;5.40;1.80;;;;;;;18.83;79.65;100325.25;20904721;28;20072;-84
2022/07/27 04:13:12;;;;;;;3.17;1.65;;;;;;;18.61;82.29;100318.38;20907208;28;20052;-84
2022/07/27 04:23:14;;;;;;;2.65;1.45;;;;;;;18.53;84.06;100333.81;20918647;28;20085;-84
2022/07/27 04:33:15;;;;;;;3.20;1.67;;;;;;;18.43;85.74;100336.06;20972325;28;20045;-84
2022/07/27 04:43:16;;;;;;;3.40;1.35;;;;;;;18.50;86.20;100339.28;20905262;28;20517;-84
2022/07/27 04:53:18;;;;;;;4.45;1.40;;;;;;;18.51;87.27;100348.94;20921515;28;20053;-84
2022/07/27 05:03:19;;;;;;;3.63;1.42;;;;;;;18.45;87.81;100349.25;20900234;28;20139;-84
2022/07/27 05:13:21;;;;;;;4.43;1.40;;;;;;;18.74;85.30;100357.59;20893438;28;20063;-84
2022/07/27 05:23:22;;;;;;;4.13;1.55;;;;;;;18.67;85.63;100355.19;20911134;28;20044;-84
2022/07/27 05:33:24;;;;;;;1.45;1.00;;;;;;;18.70;85.14;100368.34;20915930;28;20421;-84
2022/07/27 05:43:25;;;;;;;2.58;1.30;;;;;;;18.69;86.56;100379.91;20890407;28;20389;-84
2022/07/27 05:53:27;;;;;;;4.82;1.30;;;;;;;18.76;86.15;100384.88;20890963;28;20048;-82
2022/07/27 06:03:28;;;;;;;5.43;1.10;;;;;;;18.87;85.73;100406.41;20905117;28;20132;-82
2022/07/27 06:13:34;;;;;;;5.10;1.80;;;;;;;19.08;85.72;100397.41;20907887;28;20102;-82
2022/07/27 06:23:35;;;;;;;6.53;1.17;;;;;;;19.28;85.27;100414.09;20929626;28;20051;-84
2022/07/27 06:33:37;;;;;;;4.35;1.38;;;;;;;19.86;80.58;100408.41;20923889;28;20041;-85
2022/07/27 06:43:38;;;;;;;2.05;0.90;;;;;;;19.80;80.88;100411.38;20904022;28;20136;-84
2022/07/27 06:53:40;;;;;;;2.78;1.10;;;;;;;20.03;79.39;100424.28;20905171;28;20520;-84
2022/07/27 07:03:41;;;;;;;3.10;0.90;;;;;;;20.20;78.43;100415.38;20901734;28;20057;-85
2022/07/27 07:13:42;;;;;;;5.57;1.38;;;;;;;20.02;78.51;100411.06;20900748;28;20540;-84
2022/07/27 07:23:45;;;;;;;6.47;1.30;;;;;;;20.08;81.24;100424.03;20902486;28;20049;-85
2022/07/27 07:33:46;;;;;;;4.35;0.98;;;;;;;20.33;76.95;100428.84;20898825;28;20041;-84
2022/07/27 07:43:48;;;;;;;28.77;3.15;;;;;;;20.48;76.94;100430.69;20921937;28;20077;-83
2022/07/27 07:53:49;;;;;;;4.85;1.10;;;;;;;20.84;74.25;100433.06;20916415;28;20132;-85
2022/07/27 08:03:51;;;;;;;6.38;1.50;;;;;;;20.62;75.24;100422.78;20911971;28;20063;-85
2022/07/27 08:13:52;;;;;;;2.97;1.08;;;;;;;20.69;74.75;100425.94;20910017;28;20539;-86
2022/07/27 08:23:54;;;;;;;4.38;1.25;;;;;;;21.29;70.06;100425.13;20915976;28;20076;-83
2022/07/27 08:33:58;;;;;;;4.50;1.45;;;;;;;21.17;69.31;100424.88;20912133;28;20041;-83
2022/07/27 08:44:00;;;;;;;6.03;1.13;;;;;;;21.16;68.33;100430.31;20926111;28;20049;-84
2022/07/27 08:54:01;;;;;;;9.23;1.55;;;;;;;21.98;63.87;100432.44;20919962;28;20075;-83
2022/07/27 09:04:02;;;;;;;3.60;1.38;;;;;;;21.99;60.70;100428.81;20943500;28;20108;-84
2022/07/27 09:14:04;;;;;;;5.30;1.30;;;;;;;21.91;63.49;100439.97;20949835;28;20061;-84
2022/07/27 09:24:05;;;;;;;2.17;0.95;;;;;;;22.07;60.39;100439.00;20952994;28;20041;-86
2022/07/27 09:34:23;;;;;;;3.67;1.08;;;;;;;22.56;55.58;100434.06;20973894;28;20132;-83
2022/07/27 09:44:24;;;;;;;3.22;1.15;;;;;;;23.22;54.48;100421.72;20917817;28;20051;-82
2022/07/27 09:54:32;;;;;;;5.15;1.15;;;;;;;22.84;54.87;100429.59;20924328;28;20107;-84
2022/07/27 10:04:34;;;;;;;3.75;1.40;;;;;;;23.28;52.40;100422.19;20927881;28;20037;-79
2022/07/27 10:14:35;;;;;;;4.90;1.15;;;;;;;23.22;52.45;100441.28;20926934;28;20045;-83
2022/07/27 10:24:36;;;;;;;4.63;1.05;;;;;;;22.68;55.04;100427.09;20943371;22;20435;-75
2022/07/27 10:34:38;;;;;;;6.97;1.70;;;;;;;22.90;54.16;100437.22;20998116;28;20051;-75
2022/07/27 10:44:39;;;;;;;4.55;1.55;;;;;;;23.13;53.30;100433.88;20996339;28;20055;-75
2022/07/27 10:54:40;;;;;;;4.60;1.25;;;;;;;23.20;52.64;100424.50;21000728;28;20140;-75
2022/07/27 11:04:42;;;;;;;5.45;1.25;;;;;;;23.46;52.36;100419.19;20992810;28;20090;-74
2022/07/27 11:14:44;;;;;;;6.35;1.70;;;;;;;23.41;50.05;100422.19;20993425;28;20446;-75
2022/07/27 11:24:45;;;;;;;4.90;1.52;;;;;;;23.90;48.41;100409.91;20992738;28;20481;-74
2022/07/27 11:34:47;;;;;;;8.23;1.70;;;;;;;23.61;48.76;100399.41;20990649;28;20055;-75
2022/07/27 11:44:48;;;;;;;9.63;1.88;;;;;;;23.74;48.28;100388.75;20990902;28;20704;-74
2022/07/27 11:54:51;;;;;;;6.35;1.85;;;;;;;23.48;48.05;100393.22;20990453;28;20417;-73
2022/07/27 12:04:53;;;;;;;4.78;1.65;;;;;;;23.63;46.92;100377.94;20987888;28;20055;-74
2022/07/27 12:15:02;;;;;;;6.53;1.70;;;;;;;23.62;47.15;100384.22;20987231;28;20141;-74
2022/07/27 12:25:24;;;;;;;11.80;2.50;;;;;;;23.42;47.14;100370.44;20988190;28;20389;-74
2022/07/27 12:35:25;;;;;;;7.53;1.90;;;;;;;23.89;45.32;100373.44;20986400;28;20059;-73
2022/07/27 12:45:26;;;;;;;8.77;1.70;;;;;;;23.79;45.28;100374.09;20986083;28;20118;-74
2022/07/27 12:55:28;;;;;;;6.00;1.50;;;;;;;24.24;44.10;100363.72;20986371;28;20045;-74
2022/07/27 13:05:29;;;;;;;6.63;1.70;;;;;;;23.90;44.93;100359.09;20989364;28;20059;-74
2022/07/27 13:15:30;;;;;;;4.03;1.73;;;;;;;24.32;42.43;100331.88;20989729;28;20143;-74
2022/07/27 13:25:32;;;;;;;9.02;2.00;;;;;;;24.59;41.93;100325.47;20987535;28;20087;-74
2022/07/27 13:35:33;;;;;;;4.95;1.58;;;;;;;24.37;41.19;100320.88;20985545;28;20052;-74
2022/07/27 13:45:35;;;;;;;6.70;1.63;;;;;;;24.73;40.07;100327.97;20986946;28;20138;-74
2022/07/27 13:55:43;;;;;;;7.65;1.88;;;;;;;24.34;41.02;100321.09;20986405;28;20121;-75
2022/07/27 14:05:45;;;;;;;6.80;1.60;;;;;;;25.01;39.15;100312.47;20984721;28;20062;-76
2022/07/27 14:15:49;;;;;;;7.10;1.55;;;;;;;24.30;40.46;100312.41;20986720;28;20554;-75
2022/07/27 14:25:55;;;;;;;6.75;1.70;;;;;;;24.76;38.51;100300.94;20987115;28;20052;-76
2022/07/27 14:35:56;;;;;;;4.63;1.55;;;;;;;25.38;37.42;100304.25;20986190;28;20095;-75
2022/07/27 14:45:58;;;;;;;5.50;1.50;;;;;;;25.53;37.08;100303.03;20996295;28;20052;-76
2022/07/27 14:55:59;;;;;;;5.00;1.92;;;;;;;25.35;36.75;100296.47;20996072;28;20049;-75
2022/07/27 15:06:01;;;;;;;5.93;1.48;;;;;;;25.41;36.26;100274.53;20994722;28;20094;-74
2022/07/27 15:16:02;;;;;;;7.20;1.80;;;;;;;25.11;36.58;100265.25;20994218;28;20052;-75
2022/07/27 15:26:04;;;;;;;5.28;1.40;;;;;;;25.61;35.28;100264.88;20993027;28;20117;-75
2022/07/27 15:36:05;;;;;;;3.65;1.30;;;;;;;25.35;35.39;100261.63;20991036;28;20639;-74
2022/07/27 15:46:10;;;;;;;7.30;1.55;;;;;;;25.47;35.80;100266.00;20991665;28;20059;-73
2022/07/27 15:56:14;;;;;;;7.28;1.60;;;;;;;25.39;36.13;100263.91;20977680;28;20055;-73
2022/07/27 16:06:16;;;;;;;7.43;1.52;;;;;;;25.59;35.96;100252.47;20973389;28;20086;-73
2022/07/27 16:16:29;;;;;;;5.00;1.60;;;;;;;25.50;35.17;100244.31;20975685;28;20048;-73
2022/07/27 16:26:31;;;;;;;4.85;1.52;;;;;;;25.26;35.66;100244.44;20976305;28;20052;-72
2022/07/27 16:36:32;;;;;;;6.50;1.52;;;;;;;25.59;35.45;100224.78;20974862;28;20056;-72
2022/07/27 16:46:41;;;;;;;6.40;1.40;;;;;;;25.32;35.11;100219.81;20974097;28;20149;-73
2022/07/27 16:56:42;;;;;;;4.43;1.40;;;;;;;25.54;34.49;100218.97;20975526;28;20499;-72
2022/07/27 17:06:43;;;;;;;6.03;1.48;;;;;;;25.36;34.94;100223.13;20974509;28;20420;-73
2022/07/27 17:16:45;;;;;;;4.22;1.45;;;;;;;25.22;34.16;100225.06;20972521;28;20059;-73
2022/07/27 17:26:52;;;;;;;6.82;1.48;;;;;;;25.14;34.75;100230.16;20974017;28;20084;-72
2022/07/27 17:36:53;;;;;;;5.10;1.60;;;;;;;24.64;35.01;100216.22;20956296;28;20053;-73
2022/07/27 17:46:55;;;;;;;8.88;1.83;;;;;;;24.66;35.40;100208.06;20974308;28;20052;-72
2022/07/27 17:56:56;;;;;;;4.45;1.20;;;;;;;24.57;35.70;100223.84;20973151;28;20053;-73
2022/07/27 18:06:58;;;;;;;6.07;1.30;;;;;;;24.21;35.99;100224.81;20971506;28;20048;-72
2022/07/27 18:16:59;;;;;;;6.32;1.25;;;;;;;23.90;37.10;100239.59;20986481;28;20083;-72
2022/07/27 18:27:00;;;;;;;3.40;1.25;;;;;;;23.58;37.52;100249.13;20986567;28;20059;-73
2022/07/27 18:37:02;;;;;;;5.95;1.40;;;;;;;23.12;38.74;100255.03;20985408;28;20064;-72
2022/07/27 18:47:03;;;;;;;5.25;1.33;;;;;;;22.91;39.44;100262.75;20986649;28;20133;-73
2022/07/27 18:57:05;;;;;;;4.05;1.30;;;;;;;22.55;40.34;100274.94;20984748;28;20045;-73
2022/07/27 19:07:06;;;;;;;10.00;1.83;;;;;;;22.45;40.80;100276.50;20984387;28;20162;-75
2022/07/27 19:17:07;;;;;;;4.40;1.30;;;;;;;22.12;42.11;100285.78;20929584;28;20053;-73
2022/07/27 19:27:15;;;;;;;8.02;1.65;;;;;;;21.70;43.67;100300.91;20899156;28;20107;-73
2022/07/27 19:37:16;;;;;;;7.15;1.40;;;;;;;21.58;43.06;100312.34;20945691;28;20397;-74
2022/07/27 19:47:19;;;;;;;6.20;1.33;;;;;;;21.37;43.99;100316.34;20981542;28;20055;-74
2022/07/27 19:57:20;;;;;;;5.00;1.33;;;;;;;21.17;44.41;100323.69;20981678;28;20056;-73
2022/07/27 20:07:21;;;;;;;2.67;1.00;;;;;;;21.05;44.68;100337.78;20980018;28;20156;-73
2022/07/27 20:17:23;;;;;;;4.30;1.42;;;;;;;20.88;44.70;100332.59;20978151;28;20056;-74
2022/07/27 20:27:24;;;;;;;4.53;1.20;;;;;;;20.70;45.28;100340.72;20980613;28;20099;-75
2022/07/27 20:37:25;;;;;;;3.80;1.38;;;;;;;20.48;45.93;100334.94;20978386;28;20070;-76
2022/07/27 20:47:27;;;;;;;8.35;1.20;;;;;;;20.30;46.81;100327.97;20975761;28;20059;-76
2022/07/27 20:57:34;;;;;;;5.30;1.80;;;;;;;20.17;46.99;100331.34;20975518;28;20051;-76
2022/07/27 21:07:36;;;;;;;4.28;1.10;;;;;;;19.86;47.81;100328.69;20973511;28;20048;-74
2022/07/27 21:17:37;;;;;;;4.05;1.30;;;;;;;19.75;48.31;100328.41;20973519;28;20090;-75
2022/07/27 21:27:38;;;;;;;5.07;1.20;;;;;;;19.61;48.65;100332.69;20971390;28;20060;-75
2022/07/27 21:37:44;;;;;;;5.32;1.33;;;;;;;19.47;49.35;100329.88;20972718;28;20052;-74
2022/07/27 21:47:45;;;;;;;2.93;0.80;;;;;;;19.42;49.44;100347.84;20981115;28;20052;-74
2022/07/27 21:57:47;;;;;;;3.80;1.20;;;;;;;19.32;49.73;100357.25;20989895;28;20048;-75
2022/07/27 22:07:48;;;;;;;6.00;1.20;;;;;;;19.29;50.08;100349.44;20993785;28;20070;-74
2022/07/27 22:17:49;;;;;;;3.40;1.17;;;;;;;19.02;50.70;100360.56;20995127;28;20059;-74
2022/07/27 22:27:51;;;;;;;7.15;1.80;;;;;;;18.92;51.24;100364.59;21016897;22;20071;-70
2022/07/27 22:37:52;;;;;;;3.67;1.17;;;;;;;18.63;52.51;100369.53;20895454;28;20045;-72
2022/07/27 22:47:54;;;;;;;3.85;1.38;;;;;;;18.53;52.74;100373.56;20829885;28;20068;-71
2022/07/27 22:57:55;;;;;;;3.63;1.20;;;;;;;18.30;53.77;100376.47;20827811;28;20136;-69
2022/07/27 23:07:56;;;;;;;3.53;1.13;;;;;;;18.12;54.88;100373.78;20827114;28;20046;-69
2022/07/27 23:17:58;;;;;;;6.60;1.48;;;;;;;17.94;55.64;100370.22;20828298;28;20064;-69
2022/07/27 23:28:00;;;;;;;5.03;1.30;;;;;;;17.77;56.58;100366.63;20826845;28;20053;-69
2022/07/27 23:38:02;;;;;;;4.15;1.23;;;;;;;17.60;57.50;100370.00;20825729;28;20452;-69
2022/07/27 23:48:03;;;;;;;4.22;1.08;;;;;;;17.51;57.58;100368.63;20824450;28;20053;-68
2022/07/27 23:58:05;;;;;;;4.07;1.10;;;;;;;17.43;57.96;100363.66;20824995;28;20053;-68
